sensor_id;sensor_type;location;lat;lon;timestamp;temperature;humidity
27114;DHT22;14648;49.730;8.614;2024-01-30T00:02:14;3.00;54.50
27114;DHT22;14648;49.730;8.614;2024-01-30T00:04:40;3.00;54.50
27114;DHT22;14648;49.730;8.614;2024-01-30T00:07:06;3.00;54.50
27114;DHT22;14648;49.730;8.614;2024-01-30T00:09:32;3.00;54.60
27114;DHT22;14648;49.730;8.614;2024-01-30T00:11:58;3.00;54.60
27114;DHT22;14648;49.730;8.614;2024-01-30T00:14:24;3.00;54.50
27114;DHT22;14648;49.730;8.614;2024-01-30T00:16:51;3.00;54.50
27114;DHT22;14648;49.730;8.614;2024-01-30T00:19:20;2.90;54.50
27114;DHT22;14648;49.730;8.614;2024-01-30T00:21:45;2.90;54.50
27114;DHT22;14648;49.730;8.614;2024-01-30T00:24:11;2.90;54.60
27114;DHT22;14648;49.730;8.614;2024-01-30T00:26:37;2.80;54.60
27114;DHT22;14648;49.730;8.614;2024-01-30T00:29:02;2.90;54.60
27114;DHT22;14648;49.730;8.614;2024-01-30T00:31:28;2.90;54.50
27114;DHT22;14648;49.730;8.614;2024-01-30T00:33:54;2.80;54.50
27114;DHT22;14648;49.730;8.614;2024-01-30T00:36:20;2.80;54.60
27114;DHT22;14648;49.730;8.614;2024-01-30T00:38:46;2.70;54.60
27114;DHT22;14648;49.730;8.614;2024-01-30T00:41:11;2.80;54.60
27114;DHT22;14648;49.730;8.614;2024-01-30T00:43:37;2.80;54.60
27114;DHT22;14648;49.730;8.614;2024-01-30T00:46:03;2.70;54.60
27114;DHT22;14648;49.730;8.614;2024-01-30T00:48:29;2.70;54.60
27114;DHT22;14648;49.730;8.614;2024-01-30T00:50:55;2.70;54.60
27114;DHT22;14648;49.730;8.614;2024-01-30T00:53:20;2.70;54.60
27114;DHT22;14648;49.730;8.614;2024-01-30T00:55:46;2.70;54.60
27114;DHT22;14648;49.730;8.614;2024-01-30T00:58:12;2.70;54.60
27114;DHT22;14648;49.730;8.614;2024-01-30T01:00:39;2.70;54.60
27114;DHT22;14648;49.730;8.614;2024-01-30T01:03:05;2.60;54.50
27114;DHT22;14648;49.730;8.614;2024-01-30T01:05:30;2.60;54.60
27114;DHT22;14648;49.730;8.614;2024-01-30T01:07:56;2.60;54.70
27114;DHT22;14648;49.730;8.614;2024-01-30T01:10:22;2.60;54.80
27114;DHT22;14648;49.730;8.614;2024-01-30T01:12:48;2.60;54.90
27114;DHT22;14648;49.730;8.614;2024-01-30T01:15:14;2.60;54.90
27114;DHT22;14648;49.730;8.614;2024-01-30T01:17:40;2.50;54.90
27114;DHT22;14648;49.730;8.614;2024-01-30T01:20:07;2.60;54.90
27114;DHT22;14648;49.730;8.614;2024-01-30T01:22:34;2.60;54.90
27114;DHT22;14648;49.730;8.614;2024-01-30T01:25:00;2.60;54.80
27114;DHT22;14648;49.730;8.614;2024-01-30T01:27:27;2.60;54.70
27114;DHT22;14648;49.730;8.614;2024-01-30T01:29:53;2.60;54.70
27114;DHT22;14648;49.730;8.614;2024-01-30T01:32:19;2.60;54.70
27114;DHT22;14648;49.730;8.614;2024-01-30T01:34:45;2.60;54.70
27114;DHT22;14648;49.730;8.614;2024-01-30T01:37:11;2.60;54.70
27114;DHT22;14648;49.730;8.614;2024-01-30T01:39:36;2.60;54.70
27114;DHT22;14648;49.730;8.614;2024-01-30T01:42:02;2.60;54.70
27114;DHT22;14648;49.730;8.614;2024-01-30T01:44:28;2.50;54.70
27114;DHT22;14648;49.730;8.614;2024-01-30T01:46:55;2.50;54.70
27114;DHT22;14648;49.730;8.614;2024-01-30T01:49:25;2.50;54.70
27114;DHT22;14648;49.730;8.614;2024-01-30T01:51:55;2.50;54.70
27114;DHT22;14648;49.730;8.614;2024-01-30T01:54:22;2.50;54.80
27114;DHT22;14648;49.730;8.614;2024-01-30T01:56:50;2.50;54.80
27114;DHT22;14648;49.730;8.614;2024-01-30T01:59:17;2.40;54.80
27114;DHT22;14648;49.730;8.614;2024-01-30T02:01:43;2.40;54.80
27114;DHT22;14648;49.730;8.614;2024-01-30T02:04:11;2.40;54.80
27114;DHT22;14648;49.730;8.614;2024-01-30T02:06:37;2.40;54.80
27114;DHT22;14648;49.730;8.614;2024-01-30T02:09:03;2.40;54.80
27114;DHT22;14648;49.730;8.614;2024-01-30T02:11:30;2.40;54.80
27114;DHT22;14648;49.730;8.614;2024-01-30T02:13:55;2.40;54.80
27114;DHT22;14648;49.730;8.614;2024-01-30T02:16:21;2.40;54.80
27114;DHT22;14648;49.730;8.614;2024-01-30T02:18:47;2.30;54.90
27114;DHT22;14648;49.730;8.614;2024-01-30T02:21:17;2.30;54.90
27114;DHT22;14648;49.730;8.614;2024-01-30T02:23:44;2.30;54.90
27114;DHT22;14648;49.730;8.614;2024-01-30T02:26:12;2.30;54.90
27114;DHT22;14648;49.730;8.614;2024-01-30T02:28:38;2.30;54.90
27114;DHT22;14648;49.730;8.614;2024-01-30T02:31:04;2.30;54.80
27114;DHT22;14648;49.730;8.614;2024-01-30T02:33:30;2.30;54.80
27114;DHT22;14648;49.730;8.614;2024-01-30T02:35:56;2.30;54.80
27114;DHT22;14648;49.730;8.614;2024-01-30T02:38:22;2.30;54.80
27114;DHT22;14648;49.730;8.614;2024-01-30T02:40:49;2.20;54.70
27114;DHT22;14648;49.730;8.614;2024-01-30T02:43:16;2.20;54.80
27114;DHT22;14648;49.730;8.614;2024-01-30T02:45:42;2.20;54.80
27114;DHT22;14648;49.730;8.614;2024-01-30T02:48:08;2.20;54.90
27114;DHT22;14648;49.730;8.614;2024-01-30T02:50:34;2.20;54.80
27114;DHT22;14648;49.730;8.614;2024-01-30T02:52:59;2.20;54.80
27114;DHT22;14648;49.730;8.614;2024-01-30T02:55:25;2.20;54.80
27114;DHT22;14648;49.730;8.614;2024-01-30T02:57:51;2.10;54.90
27114;DHT22;14648;49.730;8.614;2024-01-30T03:00:17;2.10;55.60
27114;DHT22;14648;49.730;8.614;2024-01-30T03:02:45;2.10;55.00
27114;DHT22;14648;49.730;8.614;2024-01-30T03:05:10;2.10;55.00
27114;DHT22;14648;49.730;8.614;2024-01-30T03:07:36;2.10;55.00
27114;DHT22;14648;49.730;8.614;2024-01-30T03:10:02;2.10;55.10
27114;DHT22;14648;49.730;8.614;2024-01-30T03:12:29;2.10;55.10
27114;DHT22;14648;49.730;8.614;2024-01-30T03:14:55;2.10;55.00
27114;DHT22;14648;49.730;8.614;2024-01-30T03:17:21;2.00;55.00
27114;DHT22;14648;49.730;8.614;2024-01-30T03:19:47;2.00;54.90
27114;DHT22;14648;49.730;8.614;2024-01-30T03:22:13;2.00;54.90
27114;DHT22;14648;49.730;8.614;2024-01-30T03:24:38;2.00;55.00
27114;DHT22;14648;49.730;8.614;2024-01-30T03:27:04;2.00;55.00
27114;DHT22;14648;49.730;8.614;2024-01-30T03:29:30;2.00;55.10
27114;DHT22;14648;49.730;8.614;2024-01-30T03:31:55;1.90;55.00
27114;DHT22;14648;49.730;8.614;2024-01-30T03:34:21;1.90;55.00
27114;DHT22;14648;49.730;8.614;2024-01-30T03:36:47;1.90;55.00
27114;DHT22;14648;49.730;8.614;2024-01-30T03:39:12;1.90;55.10
27114;DHT22;14648;49.730;8.614;2024-01-30T03:41:38;1.90;55.10
27114;DHT22;14648;49.730;8.614;2024-01-30T03:44:07;1.90;55.10
27114;DHT22;14648;49.730;8.614;2024-01-30T03:46:33;1.90;55.20
27114;DHT22;14648;49.730;8.614;2024-01-30T03:48:59;1.80;55.10
27114;DHT22;14648;49.730;8.614;2024-01-30T03:51:24;1.80;55.10
27114;DHT22;14648;49.730;8.614;2024-01-30T03:53:50;1.80;55.20
27114;DHT22;14648;49.730;8.614;2024-01-30T03:56:15;1.80;55.20
27114;DHT22;14648;49.730;8.614;2024-01-30T03:58:41;1.80;55.30
27114;DHT22;14648;49.730;8.614;2024-01-30T04:01:07;1.70;55.30
27114;DHT22;14648;49.730;8.614;2024-01-30T04:03:33;1.80;55.30
27114;DHT22;14648;49.730;8.614;2024-01-30T04:05:59;1.80;55.30
27114;DHT22;14648;49.730;8.614;2024-01-30T04:08:24;1.70;55.30
27114;DHT22;14648;49.730;8.614;2024-01-30T04:10:50;1.80;55.30
27114;DHT22;14648;49.730;8.614;2024-01-30T04:13:16;1.80;55.30
27114;DHT22;14648;49.730;8.614;2024-01-30T04:15:41;1.80;55.30
27114;DHT22;14648;49.730;8.614;2024-01-30T04:18:07;1.90;55.40
27114;DHT22;14648;49.730;8.614;2024-01-30T04:20:33;1.90;55.40
27114;DHT22;14648;49.730;8.614;2024-01-30T04:22:59;2.00;55.50
27114;DHT22;14648;49.730;8.614;2024-01-30T04:25:25;2.10;55.40
27114;DHT22;14648;49.730;8.614;2024-01-30T04:27:50;2.30;55.40
27114;DHT22;14648;49.730;8.614;2024-01-30T04:30:16;2.40;55.10
27114;DHT22;14648;49.730;8.614;2024-01-30T04:32:43;2.50;55.90
27114;DHT22;14648;49.730;8.614;2024-01-30T04:35:08;2.60;55.10
27114;DHT22;14648;49.730;8.614;2024-01-30T04:37:34;2.70;55.80
27114;DHT22;14648;49.730;8.614;2024-01-30T04:40:00;2.90;55.20
27114;DHT22;14648;49.730;8.614;2024-01-30T04:42:26;3.00;55.00
27114;DHT22;14648;49.730;8.614;2024-01-30T04:44:51;3.10;55.00
27114;DHT22;14648;49.730;8.614;2024-01-30T04:47:17;3.20;55.00
27114;DHT22;14648;49.730;8.614;2024-01-30T04:49:43;3.30;55.20
27114;DHT22;14648;49.730;8.614;2024-01-30T04:52:08;3.40;55.20
27114;DHT22;14648;49.730;8.614;2024-01-30T04:54:35;3.40;55.20
27114;DHT22;14648;49.730;8.614;2024-01-30T04:57:02;3.50;55.30
27114;DHT22;14648;49.730;8.614;2024-01-30T04:59:28;3.50;55.50
27114;DHT22;14648;49.730;8.614;2024-01-30T05:01:54;3.60;55.50
27114;DHT22;14648;49.730;8.614;2024-01-30T05:04:20;3.70;55.60
27114;DHT22;14648;49.730;8.614;2024-01-30T05:06:47;3.70;55.70
27114;DHT22;14648;49.730;8.614;2024-01-30T05:09:13;3.70;55.80
27114;DHT22;14648;49.730;8.614;2024-01-30T05:11:39;3.80;55.90
27114;DHT22;14648;49.730;8.614;2024-01-30T05:14:05;3.80;55.90
27114;DHT22;14648;49.730;8.614;2024-01-30T05:16:32;3.80;56.00
27114;DHT22;14648;49.730;8.614;2024-01-30T05:18:58;3.80;56.10
27114;DHT22;14648;49.730;8.614;2024-01-30T05:21:24;3.90;56.30
27114;DHT22;14648;49.730;8.614;2024-01-30T05:23:50;4.00;56.30
27114;DHT22;14648;49.730;8.614;2024-01-30T05:26:16;4.00;56.40
27114;DHT22;14648;49.730;8.614;2024-01-30T05:28:42;4.00;56.30
27114;DHT22;14648;49.730;8.614;2024-01-30T05:31:10;4.10;56.40
27114;DHT22;14648;49.730;8.614;2024-01-30T05:33:36;4.10;56.40
27114;DHT22;14648;49.730;8.614;2024-01-30T05:36:02;4.10;56.40
27114;DHT22;14648;49.730;8.614;2024-01-30T05:38:28;4.10;56.50
27114;DHT22;14648;49.730;8.614;2024-01-30T05:40:54;4.10;56.60
27114;DHT22;14648;49.730;8.614;2024-01-30T05:43:19;4.10;56.70
27114;DHT22;14648;49.730;8.614;2024-01-30T05:45:45;4.20;56.80
27114;DHT22;14648;49.730;8.614;2024-01-30T05:48:11;4.20;56.70
27114;DHT22;14648;49.730;8.614;2024-01-30T05:50:36;4.30;56.90
27114;DHT22;14648;49.730;8.614;2024-01-30T05:53:02;4.30;56.90
27114;DHT22;14648;49.730;8.614;2024-01-30T05:55:28;4.40;56.70
27114;DHT22;14648;49.730;8.614;2024-01-30T05:57:53;4.50;56.90
27114;DHT22;14648;49.730;8.614;2024-01-30T06:00:19;4.70;56.70
27114;DHT22;14648;49.730;8.614;2024-01-30T06:02:45;4.80;56.60
27114;DHT22;14648;49.730;8.614;2024-01-30T06:05:10;5.00;56.60
27114;DHT22;14648;49.730;8.614;2024-01-30T06:07:36;5.10;56.40
27114;DHT22;14648;49.730;8.614;2024-01-30T06:10:02;5.20;56.30
27114;DHT22;14648;49.730;8.614;2024-01-30T06:12:28;5.20;56.50
27114;DHT22;14648;49.730;8.614;2024-01-30T06:14:54;5.20;56.60
27114;DHT22;14648;49.730;8.614;2024-01-30T06:17:22;5.10;56.90
27114;DHT22;14648;49.730;8.614;2024-01-30T06:19:48;5.10;57.00
27114;DHT22;14648;49.730;8.614;2024-01-30T06:22:15;5.10;57.10
27114;DHT22;14648;49.730;8.614;2024-01-30T06:24:41;5.00;57.30
27114;DHT22;14648;49.730;8.614;2024-01-30T06:27:07;5.00;57.40
27114;DHT22;14648;49.730;8.614;2024-01-30T06:29:32;4.90;57.50
27114;DHT22;14648;49.730;8.614;2024-01-30T06:31:59;4.90;57.80
27114;DHT22;14648;49.730;8.614;2024-01-30T06:34:24;4.90;57.80
27114;DHT22;14648;49.730;8.614;2024-01-30T06:36:51;5.00;57.70
27114;DHT22;14648;49.730;8.614;2024-01-30T06:39:17;5.00;57.70
27114;DHT22;14648;49.730;8.614;2024-01-30T06:41:43;5.10;57.80
27114;DHT22;14648;49.730;8.614;2024-01-30T06:44:09;5.20;57.70
27114;DHT22;14648;49.730;8.614;2024-01-30T06:46:35;5.40;57.50
27114;DHT22;14648;49.730;8.614;2024-01-30T06:49:01;5.60;57.20
27114;DHT22;14648;49.730;8.614;2024-01-30T06:51:27;5.80;57.20
27114;DHT22;14648;49.730;8.614;2024-01-30T06:53:52;5.90;57.10
27114;DHT22;14648;49.730;8.614;2024-01-30T06:56:18;6.00;56.90
27114;DHT22;14648;49.730;8.614;2024-01-30T06:58:47;6.00;57.00
27114;DHT22;14648;49.730;8.614;2024-01-30T07:01:14;6.10;57.20
27114;DHT22;14648;49.730;8.614;2024-01-30T07:03:40;6.10;57.40
27114;DHT22;14648;49.730;8.614;2024-01-30T07:06:06;6.20;57.50
27114;DHT22;14648;49.730;8.614;2024-01-30T07:08:32;6.30;57.50
27114;DHT22;14648;49.730;8.614;2024-01-30T07:10:57;6.30;57.40
27114;DHT22;14648;49.730;8.614;2024-01-30T07:13:23;6.40;57.40
27114;DHT22;14648;49.730;8.614;2024-01-30T07:15:50;6.40;57.40
27114;DHT22;14648;49.730;8.614;2024-01-30T07:18:15;6.40;57.50
27114;DHT22;14648;49.730;8.614;2024-01-30T07:20:41;6.40;57.70
27114;DHT22;14648;49.730;8.614;2024-01-30T07:23:12;6.40;57.80
27114;DHT22;14648;49.730;8.614;2024-01-30T07:25:42;6.40;57.90
27114;DHT22;14648;49.730;8.614;2024-01-30T07:28:11;6.30;58.00
27114;DHT22;14648;49.730;8.614;2024-01-30T07:30:42;6.30;58.10
27114;DHT22;14648;49.730;8.614;2024-01-30T07:33:11;6.20;58.90
27114;DHT22;14648;49.730;8.614;2024-01-30T07:35:37;6.20;58.30
27114;DHT22;14648;49.730;8.614;2024-01-30T07:38:03;6.20;58.40
27114;DHT22;14648;49.730;8.614;2024-01-30T07:40:29;6.10;58.60
27114;DHT22;14648;49.730;8.614;2024-01-30T07:42:55;6.10;58.70
27114;DHT22;14648;49.730;8.614;2024-01-30T07:45:21;6.10;58.70
27114;DHT22;14648;49.730;8.614;2024-01-30T07:47:51;6.10;58.70
27114;DHT22;14648;49.730;8.614;2024-01-30T07:50:19;6.10;58.70
27114;DHT22;14648;49.730;8.614;2024-01-30T07:52:45;6.10;58.70
27114;DHT22;14648;49.730;8.614;2024-01-30T07:55:11;6.10;58.70
27114;DHT22;14648;49.730;8.614;2024-01-30T07:57:41;6.00;58.70
27114;DHT22;14648;49.730;8.614;2024-01-30T08:00:07;6.00;58.70
27114;DHT22;14648;49.730;8.614;2024-01-30T08:02:33;6.00;58.70
27114;DHT22;14648;49.730;8.614;2024-01-30T08:04:59;6.00;58.80
27114;DHT22;14648;49.730;8.614;2024-01-30T08:07:25;6.00;58.80
27114;DHT22;14648;49.730;8.614;2024-01-30T08:09:53;6.00;58.80
27114;DHT22;14648;49.730;8.614;2024-01-30T08:12:18;6.00;58.80
27114;DHT22;14648;49.730;8.614;2024-01-30T08:14:44;6.10;58.80
27114;DHT22;14648;49.730;8.614;2024-01-30T08:17:10;6.10;58.80
27114;DHT22;14648;49.730;8.614;2024-01-30T08:19:36;6.20;58.80
27114;DHT22;14648;49.730;8.614;2024-01-30T08:22:01;6.20;58.80
27114;DHT22;14648;49.730;8.614;2024-01-30T08:24:32;6.30;58.80
27114;DHT22;14648;49.730;8.614;2024-01-30T08:27:01;6.40;58.80
27114;DHT22;14648;49.730;8.614;2024-01-30T08:29:28;6.40;58.70
27114;DHT22;14648;49.730;8.614;2024-01-30T08:31:56;6.50;58.80
27114;DHT22;14648;49.730;8.614;2024-01-30T08:34:22;6.60;58.70
27114;DHT22;14648;49.730;8.614;2024-01-30T08:36:47;6.70;58.80
27114;DHT22;14648;49.730;8.614;2024-01-30T08:39:13;6.80;58.80
27114;DHT22;14648;49.730;8.614;2024-01-30T08:41:40;7.00;58.70
27114;DHT22;14648;49.730;8.614;2024-01-30T08:44:05;7.00;58.70
27114;DHT22;14648;49.730;8.614;2024-01-30T08:46:31;7.10;58.80
27114;DHT22;14648;49.730;8.614;2024-01-30T08:48:57;7.30;58.80
27114;DHT22;14648;49.730;8.614;2024-01-30T08:51:23;7.40;58.70
27114;DHT22;14648;49.730;8.614;2024-01-30T08:53:48;7.50;58.80
27114;DHT22;14648;49.730;8.614;2024-01-30T08:56:14;7.60;58.80
27114;DHT22;14648;49.730;8.614;2024-01-30T08:58:41;7.70;58.80
27114;DHT22;14648;49.730;8.614;2024-01-30T09:01:07;7.80;58.70
27114;DHT22;14648;49.730;8.614;2024-01-30T09:03:33;7.90;58.70
27114;DHT22;14648;49.730;8.614;2024-01-30T09:05:59;8.00;58.60
27114;DHT22;14648;49.730;8.614;2024-01-30T09:08:25;8.10;58.60
27114;DHT22;14648;49.730;8.614;2024-01-30T09:10:50;8.20;58.50
27114;DHT22;14648;49.730;8.614;2024-01-30T09:13:16;8.20;58.50
27114;DHT22;14648;49.730;8.614;2024-01-30T09:15:42;8.30;58.70
27114;DHT22;14648;49.730;8.614;2024-01-30T09:18:09;8.40;58.60
27114;DHT22;14648;49.730;8.614;2024-01-30T09:20:34;8.50;58.70
27114;DHT22;14648;49.730;8.614;2024-01-30T09:23:00;8.50;58.70
27114;DHT22;14648;49.730;8.614;2024-01-30T09:25:26;8.60;58.70
27114;DHT22;14648;49.730;8.614;2024-01-30T09:27:51;8.60;58.70
27114;DHT22;14648;49.730;8.614;2024-01-30T09:30:17;8.70;58.80
27114;DHT22;14648;49.730;8.614;2024-01-30T09:32:43;8.70;58.80
27114;DHT22;14648;49.730;8.614;2024-01-30T09:35:09;8.80;58.80
27114;DHT22;14648;49.730;8.614;2024-01-30T09:37:35;8.80;58.90
27114;DHT22;14648;49.730;8.614;2024-01-30T09:40:01;8.90;58.90
27114;DHT22;14648;49.730;8.614;2024-01-30T09:44:57;9.00;58.90
27114;DHT22;14648;49.730;8.614;2024-01-30T09:47:22;9.10;58.90
27114;DHT22;14648;49.730;8.614;2024-01-30T09:49:49;9.20;58.80
27114;DHT22;14648;49.730;8.614;2024-01-30T09:52:16;9.30;58.80
27114;DHT22;14648;49.730;8.614;2024-01-30T09:54:41;9.50;58.80
27114;DHT22;14648;49.730;8.614;2024-01-30T09:57:08;9.60;58.70
27114;DHT22;14648;49.730;8.614;2024-01-30T09:59:35;9.60;58.70
27114;DHT22;14648;49.730;8.614;2024-01-30T10:02:00;9.70;58.70
27114;DHT22;14648;49.730;8.614;2024-01-30T10:04:28;9.80;58.80
27114;DHT22;14648;49.730;8.614;2024-01-30T10:06:54;9.80;58.80
27114;DHT22;14648;49.730;8.614;2024-01-30T10:09:20;9.90;58.90
27114;DHT22;14648;49.730;8.614;2024-01-30T10:11:48;10.00;58.90
27114;DHT22;14648;49.730;8.614;2024-01-30T10:14:15;10.00;58.90
27114;DHT22;14648;49.730;8.614;2024-01-30T10:16:41;10.10;59.00
27114;DHT22;14648;49.730;8.614;2024-01-30T10:19:06;10.20;58.90
27114;DHT22;14648;49.730;8.614;2024-01-30T10:21:32;10.20;58.90
27114;DHT22;14648;49.730;8.614;2024-01-30T10:23:58;10.30;58.90
27114;DHT22;14648;49.730;8.614;2024-01-30T10:26:24;10.40;58.80
27114;DHT22;14648;49.730;8.614;2024-01-30T10:28:51;10.40;58.80
27114;DHT22;14648;49.730;8.614;2024-01-30T10:31:17;10.40;58.70
27114;DHT22;14648;49.730;8.614;2024-01-30T10:33:44;10.40;58.70
27114;DHT22;14648;49.730;8.614;2024-01-30T10:36:13;10.50;58.80
27114;DHT22;14648;49.730;8.614;2024-01-30T10:38:43;10.50;58.70
27114;DHT22;14648;49.730;8.614;2024-01-30T10:41:13;10.60;58.70
27114;DHT22;14648;49.730;8.614;2024-01-30T10:43:41;10.60;58.50
27114;DHT22;14648;49.730;8.614;2024-01-30T10:46:11;10.60;58.40
27114;DHT22;14648;49.730;8.614;2024-01-30T10:48:57;10.70;58.50
27114;DHT22;14648;49.730;8.614;2024-01-30T10:51:26;10.80;58.30
27114;DHT22;14648;49.730;8.614;2024-01-30T10:53:52;10.70;58.20
27114;DHT22;14648;49.730;8.614;2024-01-30T10:56:22;10.70;58.20
27114;DHT22;14648;49.730;8.614;2024-01-30T10:58:50;10.70;58.20
27114;DHT22;14648;49.730;8.614;2024-01-30T11:01:19;10.70;58.00
27114;DHT22;14648;49.730;8.614;2024-01-30T11:03:51;10.70;58.10
27114;DHT22;14648;49.730;8.614;2024-01-30T11:06:17;10.80;58.00
27114;DHT22;14648;49.730;8.614;2024-01-30T11:08:47;10.80;57.80
27114;DHT22;14648;49.730;8.614;2024-01-30T11:11:25;10.80;57.80
27114;DHT22;14648;49.730;8.614;2024-01-30T11:13:51;10.80;57.80
27114;DHT22;14648;49.730;8.614;2024-01-30T11:16:17;10.80;57.70
27114;DHT22;14648;49.730;8.614;2024-01-30T11:18:51;10.90;58.00
27114;DHT22;14648;49.730;8.614;2024-01-30T11:21:17;11.00;57.80
27114;DHT22;14648;49.730;8.614;2024-01-30T11:23:43;11.20;57.80
27114;DHT22;14648;49.730;8.614;2024-01-30T11:26:12;11.40;57.70
27114;DHT22;14648;49.730;8.614;2024-01-30T11:28:38;11.50;57.70
27114;DHT22;14648;49.730;8.614;2024-01-30T11:31:05;11.60;57.60
27114;DHT22;14648;49.730;8.614;2024-01-30T11:33:32;11.60;57.50
27114;DHT22;14648;49.730;8.614;2024-01-30T11:36:00;11.60;57.60
27114;DHT22;14648;49.730;8.614;2024-01-30T11:38:27;11.50;57.60
27114;DHT22;14648;49.730;8.614;2024-01-30T11:40:55;11.50;57.60
27114;DHT22;14648;49.730;8.614;2024-01-30T11:43:23;11.50;57.50
27114;DHT22;14648;49.730;8.614;2024-01-30T11:45:49;11.60;57.50
27114;DHT22;14648;49.730;8.614;2024-01-30T11:48:15;11.60;57.40
27114;DHT22;14648;49.730;8.614;2024-01-30T11:50:41;11.60;57.40
27114;DHT22;14648;49.730;8.614;2024-01-30T11:53:07;11.50;57.20
27114;DHT22;14648;49.730;8.614;2024-01-30T11:55:33;11.40;57.00
27114;DHT22;14648;49.730;8.614;2024-01-30T11:58:00;11.30;57.10
27114;DHT22;14648;49.730;8.614;2024-01-30T12:00:26;11.30;57.10
27114;DHT22;14648;49.730;8.614;2024-01-30T12:02:53;11.20;57.00
27114;DHT22;14648;49.730;8.614;2024-01-30T12:05:23;11.20;57.00
27114;DHT22;14648;49.730;8.614;2024-01-30T12:07:49;11.20;56.90
27114;DHT22;14648;49.730;8.614;2024-01-30T12:10:15;11.20;56.70
27114;DHT22;14648;49.730;8.614;2024-01-30T12:12:43;11.10;56.70
27114;DHT22;14648;49.730;8.614;2024-01-30T12:15:11;11.20;56.60
27114;DHT22;14648;49.730;8.614;2024-01-30T12:17:36;11.20;56.50
27114;DHT22;14648;49.730;8.614;2024-01-30T12:20:13;11.30;56.60
27114;DHT22;14648;49.730;8.614;2024-01-30T12:22:41;11.30;56.50
27114;DHT22;14648;49.730;8.614;2024-01-30T12:25:12;11.40;56.50
27114;DHT22;14648;49.730;8.614;2024-01-30T12:27:43;11.50;56.50
27114;DHT22;14648;49.730;8.614;2024-01-30T12:30:12;11.60;56.50
27114;DHT22;14648;49.730;8.614;2024-01-30T12:32:49;11.60;56.40
27114;DHT22;14648;49.730;8.614;2024-01-30T12:35:18;11.70;56.40
27114;DHT22;14648;49.730;8.614;2024-01-30T12:37:45;11.70;56.40
27114;DHT22;14648;49.730;8.614;2024-01-30T12:40:14;11.70;56.10
27114;DHT22;14648;49.730;8.614;2024-01-30T12:42:40;11.60;56.00
27114;DHT22;14648;49.730;8.614;2024-01-30T12:45:11;11.60;56.00
27114;DHT22;14648;49.730;8.614;2024-01-30T12:47:39;11.60;56.00
27114;DHT22;14648;49.730;8.614;2024-01-30T12:50:06;11.50;56.10
27114;DHT22;14648;49.730;8.614;2024-01-30T12:52:32;11.50;56.00
27114;DHT22;14648;49.730;8.614;2024-01-30T12:54:58;11.50;56.00
27114;DHT22;14648;49.730;8.614;2024-01-30T12:57:24;11.40;55.80
27114;DHT22;14648;49.730;8.614;2024-01-30T12:59:50;11.40;55.80
27114;DHT22;14648;49.730;8.614;2024-01-30T13:02:16;11.40;55.90
27114;DHT22;14648;49.730;8.614;2024-01-30T13:04:42;11.50;56.00
27114;DHT22;14648;49.730;8.614;2024-01-30T13:07:08;11.50;55.90
27114;DHT22;14648;49.730;8.614;2024-01-30T13:09:34;11.50;55.70
27114;DHT22;14648;49.730;8.614;2024-01-30T13:12:00;11.50;55.60
27114;DHT22;14648;49.730;8.614;2024-01-30T13:14:26;11.50;55.40
27114;DHT22;14648;49.730;8.614;2024-01-30T13:16:52;11.40;56.10
27114;DHT22;14648;49.730;8.614;2024-01-30T13:19:18;11.50;55.40
27114;DHT22;14648;49.730;8.614;2024-01-30T13:21:44;11.40;55.40
27114;DHT22;14648;49.730;8.614;2024-01-30T13:24:10;11.50;55.60
27114;DHT22;14648;49.730;8.614;2024-01-30T13:26:36;11.70;55.60
27114;DHT22;14648;49.730;8.614;2024-01-30T13:29:02;11.80;55.50
27114;DHT22;14648;49.730;8.614;2024-01-30T13:31:29;11.90;55.50
27114;DHT22;14648;49.730;8.614;2024-01-30T13:33:54;11.90;55.30
27114;DHT22;14648;49.730;8.614;2024-01-30T13:36:21;11.90;55.30
27114;DHT22;14648;49.730;8.614;2024-01-30T13:38:47;11.90;55.20
27114;DHT22;14648;49.730;8.614;2024-01-30T13:41:13;11.80;55.10
27114;DHT22;14648;49.730;8.614;2024-01-30T13:43:39;11.70;55.10
27114;DHT22;14648;49.730;8.614;2024-01-30T13:46:05;11.70;55.10
27114;DHT22;14648;49.730;8.614;2024-01-30T13:48:31;11.60;54.90
27114;DHT22;14648;49.730;8.614;2024-01-30T13:50:57;11.60;54.90
27114;DHT22;14648;49.730;8.614;2024-01-30T13:53:23;11.60;54.80
27114;DHT22;14648;49.730;8.614;2024-01-30T13:55:49;11.60;54.80
27114;DHT22;14648;49.730;8.614;2024-01-30T13:58:15;11.60;54.80
27114;DHT22;14648;49.730;8.614;2024-01-30T14:00:40;11.60;54.70
27114;DHT22;14648;49.730;8.614;2024-01-30T14:03:06;11.60;54.70
27114;DHT22;14648;49.730;8.614;2024-01-30T14:05:32;11.60;54.70
27114;DHT22;14648;49.730;8.614;2024-01-30T14:07:59;11.60;54.50
27114;DHT22;14648;49.730;8.614;2024-01-30T14:10:25;11.60;54.50
27114;DHT22;14648;49.730;8.614;2024-01-30T14:12:51;11.60;54.40
27114;DHT22;14648;49.730;8.614;2024-01-30T14:15:17;11.60;54.40
27114;DHT22;14648;49.730;8.614;2024-01-30T14:17:46;11.60;54.40
27114;DHT22;14648;49.730;8.614;2024-01-30T14:20:14;11.60;54.40
27114;DHT22;14648;49.730;8.614;2024-01-30T14:22:43;11.60;54.30
27114;DHT22;14648;49.730;8.614;2024-01-30T14:25:10;11.60;54.30
27114;DHT22;14648;49.730;8.614;2024-01-30T14:27:36;11.60;54.20
27114;DHT22;14648;49.730;8.614;2024-01-30T14:30:02;11.50;54.20
27114;DHT22;14648;49.730;8.614;2024-01-30T14:32:30;11.60;54.20
27114;DHT22;14648;49.730;8.614;2024-01-30T14:34:56;11.60;54.20
27114;DHT22;14648;49.730;8.614;2024-01-30T14:37:22;11.60;54.20
27114;DHT22;14648;49.730;8.614;2024-01-30T14:39:49;11.60;54.20
27114;DHT22;14648;49.730;8.614;2024-01-30T14:42:15;11.60;54.20
27114;DHT22;14648;49.730;8.614;2024-01-30T14:44:44;11.60;54.20
27114;DHT22;14648;49.730;8.614;2024-01-30T14:47:09;11.60;54.20
27114;DHT22;14648;49.730;8.614;2024-01-30T14:49:35;11.60;54.10
27114;DHT22;14648;49.730;8.614;2024-01-30T14:52:01;11.60;54.10
27114;DHT22;14648;49.730;8.614;2024-01-30T14:54:29;11.60;54.10
27114;DHT22;14648;49.730;8.614;2024-01-30T14:56:55;11.60;54.20
27114;DHT22;14648;49.730;8.614;2024-01-30T14:59:21;11.60;54.20
27114;DHT22;14648;49.730;8.614;2024-01-30T15:01:47;11.60;54.20
27114;DHT22;14648;49.730;8.614;2024-01-30T15:04:13;11.60;54.10
27114;DHT22;14648;49.730;8.614;2024-01-30T15:06:40;11.60;54.10
27114;DHT22;14648;49.730;8.614;2024-01-30T15:09:11;11.60;54.20
27114;DHT22;14648;49.730;8.614;2024-01-30T15:11:46;11.60;54.80
27114;DHT22;14648;49.730;8.614;2024-01-30T15:14:12;11.50;54.10
27114;DHT22;14648;49.730;8.614;2024-01-30T15:16:39;11.50;54.00
27114;DHT22;14648;49.730;8.614;2024-01-30T15:19:05;11.50;54.00
27114;DHT22;14648;49.730;8.614;2024-01-30T15:21:33;11.50;54.10
27114;DHT22;14648;49.730;8.614;2024-01-30T15:23:59;11.50;54.10
27114;DHT22;14648;49.730;8.614;2024-01-30T15:26:25;11.50;54.00
27114;DHT22;14648;49.730;8.614;2024-01-30T15:28:51;11.50;54.00
27114;DHT22;14648;49.730;8.614;2024-01-30T15:31:17;11.50;53.90
27114;DHT22;14648;49.730;8.614;2024-01-30T15:33:43;11.50;53.90
27114;DHT22;14648;49.730;8.614;2024-01-30T15:36:08;11.50;53.80
27114;DHT22;14648;49.730;8.614;2024-01-30T15:38:38;11.60;53.70